Time;durP1;ratioP1;P1;durP2;ratioP2;P2;SDS_P1;SDS_P2;PMS_P1;PMS_P2;Temp;Humidity;BMP_temperature;BMP_pressure;BME280_temperature;BME280_humidity;BME280_pressure;Samples;Min_cycle;Max_cycle;Signal;HPM_P1;HPM_P2
2022/01/03 00:00:34;;;;;;;21.35;1.92;;;8.00;99.90;;;;;;5015929;28;20061;-78
2022/01/03 00:03:03;;;;;;;13.07;1.75;;;8.10;99.90;;;;;;4994958;28;20045;-78
2022/01/03 00:05:29;;;;;;;11.90;1.50;;;8.10;99.90;;;;;;4999878;28;20568;-78
2022/01/03 00:07:55;;;;;;;10.75;1.60;;;8.10;99.90;;;;;;5017894;28;20132;-79
2022/01/03 00:10:21;;;;;;;13.88;1.88;;;8.20;99.90;;;;;;4992970;28;20754;-78
2022/01/03 00:12:49;;;;;;;17.45;1.80;;;8.20;99.90;;;;;;5009648;28;20590;-78
2022/01/03 00:15:16;;;;;;;11.50;1.90;;;8.20;99.90;;;;;;5010445;28;20060;-78
2022/01/03 00:17:43;;;;;;;13.05;1.75;;;8.40;99.90;;;;;;5014479;28;20062;-78
2022/01/03 00:20:11;;;;;;;13.23;2.20;;;8.30;99.90;;;;;;4994932;28;20052;-79
2022/01/03 00:22:43;;;;;;;14.02;2.05;;;8.30;99.90;;;;;;5008477;28;20064;-79
2022/01/03 00:25:17;;;;;;;15.27;2.03;;;8.30;99.90;;;;;;5014074;28;20087;-79
2022/01/03 00:28:09;;;;;;;19.27;2.38;;;8.40;99.90;;;;;;5012347;28;20414;-79
2022/01/03 00:30:35;;;;;;;;;;;8.40;99.90;;;;;;4999317;28;20084;-79
2022/01/03 00:33:03;;;;;;;14.32;2.30;;;8.40;99.90;;;;;;4999821;28;19932;-80
2022/01/03 00:35:29;;;;;;;17.92;2.10;;;8.40;99.90;;;;;;5019782;28;20091;-79
2022/01/03 00:37:57;;;;;;;15.70;2.10;;;8.40;99.90;;;;;;4995906;28;20068;-79
2022/01/03 00:40:24;;;;;;;17.10;2.30;;;8.40;99.90;;;;;;5016927;28;20034;-79
2022/01/03 00:42:50;;;;;;;16.55;2.15;;;8.40;99.90;;;;;;5056285;28;20060;-80
2022/01/03 00:45:16;;;;;;;20.08;2.38;;;8.50;99.90;;;;;;5013356;28;20129;-80
2022/01/03 00:47:42;;;;;;;23.73;2.30;;;8.50;99.90;;;;;;5021922;28;20080;-80
2022/01/03 00:50:15;;;;;;;18.23;2.63;;;8.50;99.90;;;;;;4999668;28;20104;-79
2022/01/03 00:52:42;;;;;;;18.30;2.65;;;8.40;99.90;;;;;;5018949;28;20112;-77
2022/01/03 00:55:08;;;;;;;20.95;2.20;;;8.40;99.90;;;;;;5005925;28;20524;-78
2022/01/03 00:57:36;;;;;;;18.88;2.50;;;8.40;99.90;;;;;;4997952;28;20838;-78
2022/01/03 01:00:09;;;;;;;23.40;2.88;;;8.40;99.90;;;;;;4994781;28;20138;-78
2022/01/03 01:02:45;;;;;;;20.58;2.90;;;8.40;99.90;;;;;;4992305;28;20103;-81
2022/01/03 01:05:11;;;;;;;18.52;2.83;;;8.40;99.90;;;;;;5003325;28;20283;-79
2022/01/03 01:07:39;;;;;;;25.92;3.13;;;8.40;99.90;;;;;;5015403;28;20037;-77
2022/01/03 01:10:06;;;;;;;28.02;2.90;;;8.40;99.90;;;;;;5001158;28;20288;-77
2022/01/03 01:12:32;;;;;;;29.30;3.35;;;8.40;99.90;;;;;;4996318;28;20055;-78
2022/01/03 01:14:58;;;;;;;21.30;2.55;;;8.40;99.90;;;;;;5025468;28;20095;-77
2022/01/03 01:17:28;;;;;;;28.48;3.03;;;8.40;99.90;;;;;;5016810;28;20048;-77
2022/01/03 01:19:56;;;;;;;26.10;2.95;;;8.40;99.90;;;;;;4996498;28;20057;-79
2022/01/03 01:22:22;;;;;;;26.27;3.35;;;8.40;99.90;;;;;;5020313;28;20635;-77
2022/01/03 01:25:21;;;;;;;23.42;3.15;;;9.00;99.90;;;;;;5012653;28;20045;-78
2022/01/03 01:27:47;;;;;;;25.85;4.53;;;8.40;99.90;;;;;;5021858;28;20187;-78
2022/01/03 01:30:19;;;;;;;24.67;3.03;;;8.50;99.90;;;;;;5009943;28;20072;-75
2022/01/03 01:32:53;;;;;;;30.13;4.22;;;8.50;99.90;;;;;;5010006;28;20053;-75
2022/01/03 01:35:21;;;;;;;30.15;3.22;;;8.50;99.90;;;;;;5021539;28;20087;-75
2022/01/03 01:37:52;;;;;;;25.45;3.53;;;8.50;99.90;;;;;;5021438;28;20046;-74
2022/01/03 01:40:18;;;;;;;25.55;2.88;;;8.50;99.90;;;;;;5037571;28;20049;-74
2022/01/03 01:42:46;;;;;;;24.83;2.92;;;8.60;99.90;;;;;;5013246;28;20097;-74
2022/01/03 01:45:15;;;;;;;30.40;3.83;;;8.60;99.90;;;;;;5004796;28;20128;-76
2022/01/03 01:47:42;;;;;;;21.00;3.08;;;8.60;99.90;;;;;;5016117;28;20041;-75
2022/01/03 01:50:10;;;;;;;31.08;3.70;;;8.60;99.90;;;;;;5055001;28;20084;-75
2022/01/03 01:52:37;;;;;;;24.00;2.90;;;8.60;99.90;;;;;;5021721;28;20561;-76
2022/01/03 01:55:07;;;;;;;17.10;2.67;;;8.60;99.90;;;;;;5003573;28;20045;-77
2022/01/03 01:57:48;;;;;;;35.90;4.30;;;8.60;99.90;;;;;;5024128;28;20057;-76
2022/01/03 02:00:15;;;;;;;22.23;3.17;;;8.60;99.90;;;;;;5013347;28;20041;-77
2022/01/03 02:02:44;;;;;;;25.77;3.63;;;8.60;99.90;;;;;;5012784;28;20156;-75
2022/01/03 02:05:29;;;;;;;25.23;3.47;;;8.60;99.90;;;;;;5025967;28;20046;-75
2022/01/03 02:08:07;;;;;;;30.67;2.92;;;8.70;99.90;;;;;;5021794;28;20168;-76
2022/01/03 02:10:43;;;;;;;28.67;3.78;;;8.70;99.90;;;;;;5016207;28;20045;-75
2022/01/03 02:13:10;;;;;;;20.48;3.22;;;8.70;99.90;;;;;;5029620;28;20515;-75
2022/01/03 02:15:37;;;;;;;27.55;3.78;;;8.70;99.90;;;;;;5023141;28;20061;-76
2022/01/03 02:18:04;;;;;;;30.15;3.53;;;8.70;99.90;;;;;;4996069;28;20099;-75
2022/01/03 02:20:32;;;;;;;24.60;3.65;;;8.70;99.90;;;;;;5015320;28;20517;-75
2022/01/03 02:22:58;;;;;;;25.85;4.05;;;8.80;99.90;;;;;;5010222;28;20065;-75
2022/01/03 02:25:26;;;;;;;28.25;3.95;;;8.70;99.90;;;;;;5002430;28;20137;-75
2022/01/03 02:27:53;;;;;;;26.30;3.35;;;8.70;99.90;;;;;;5018491;28;20049;-75
2022/01/03 02:30:23;;;;;;;28.67;3.22;;;8.70;99.90;;;;;;5004163;28;20150;-75
2022/01/03 02:32:48;;;;;;;24.13;3.65;;;8.80;99.90;;;;;;5008073;28;20340;-75
2022/01/03 02:35:14;;;;;;;28.90;5.20;;;8.70;99.90;;;;;;5036240;28;20222;-74
2022/01/03 02:37:44;;;;;;;35.22;3.70;;;8.80;99.90;;;;;;5043762;28;20461;-74
2022/01/03 02:40:11;;;;;;;33.65;4.22;;;8.70;99.90;;;;;;5018709;28;20057;-74
2022/01/03 02:42:38;;;;;;;38.15;4.82;;;8.70;99.90;;;;;;5025622;28;20046;-74
2022/01/03 02:45:09;;;;;;;32.03;4.07;;;8.60;99.90;;;;;;5005925;28;20063;-74
2022/01/03 02:47:35;;;;;;;26.05;3.92;;;8.60;99.90;;;;;;5030294;28;20087;-74
2022/01/03 02:50:03;;;;;;;30.67;3.97;;;8.60;99.90;;;;;;5016990;28;20068;-75
2022/01/03 02:52:28;;;;;;;24.08;3.60;;;8.60;99.90;;;;;;5013081;28;20053;-74
2022/01/03 02:54:54;;;;;;;24.83;3.65;;;8.60;99.90;;;;;;5026721;28;20176;-74
2022/01/03 02:57:23;;;;;;;31.00;4.03;;;8.70;99.90;;;;;;5024660;28;20552;-75
2022/01/03 03:00:16;;;;;;;26.58;3.70;;;8.60;99.90;;;;;;5024862;28;20049;-75
2022/01/03 03:02:41;;;;;;;26.75;3.88;;;8.60;99.90;;;;;;5022406;28;20053;-75
2022/01/03 03:05:09;;;;;;;25.45;3.20;;;8.60;99.90;;;;;;5001523;28;20337;-75
2022/01/03 03:07:36;;;;;;;25.20;3.70;;;8.60;99.90;;;;;;5010093;28;20128;-75
2022/01/03 03:10:09;;;;;;;35.20;3.80;;;8.50;99.90;;;;;;4999394;28;20045;-75
2022/01/03 03:12:35;;;;;;;22.52;3.60;;;8.50;99.90;;;;;;5020614;28;20605;-75
2022/01/03 03:15:01;;;;;;;28.20;4.20;;;8.40;99.90;;;;;;5023866;28;20049;-75
2022/01/03 03:17:27;;;;;;;28.88;3.65;;;8.40;99.90;;;;;;5012071;28;20049;-75
2022/01/03 03:20:03;;;;;;;31.73;3.92;;;8.40;99.90;;;;;;5003304;28;20072;-75
2022/01/03 03:22:29;;;;;;;35.17;4.03;;;8.40;99.90;;;;;;5009761;28;20179;-74
2022/01/03 03:25:11;;;;;;;30.65;3.45;;;8.40;99.90;;;;;;4997603;28;20100;-74
2022/01/03 03:27:43;;;;;;;39.08;4.38;;;8.40;99.90;;;;;;5012443;28;20042;-75
2022/01/03 03:30:24;;;;;;;27.30;4.20;;;8.40;99.90;;;;;;5025403;28;20049;-75
2022/01/03 03:32:52;;;;;;;29.75;4.22;;;8.30;99.90;;;;;;5013847;28;20057;-75
2022/01/03 03:35:18;;;;;;;31.42;3.80;;;8.30;99.90;;;;;;5025022;28;20179;-75
2022/01/03 03:37:44;;;;;;;26.73;4.35;;;8.30;99.90;;;;;;5023519;28;20054;-75
2022/01/03 03:40:11;;;;;;;26.92;3.72;;;8.20;99.90;;;;;;5034574;28;20046;-75
2022/01/03 03:42:38;;;;;;;28.88;3.55;;;8.30;99.90;;;;;;5008528;28;20045;-75
2022/01/03 03:45:04;;;;;;;37.20;4.90;;;8.30;99.90;;;;;;5046547;28;20523;-74
2022/01/03 03:47:30;;;;;;;28.13;4.03;;;8.20;99.90;;;;;;5025273;28;20032;-75
2022/01/03 03:49:56;;;;;;;33.33;4.20;;;8.30;99.90;;;;;;5052869;28;20055;-75
2022/01/03 03:52:22;;;;;;;28.90;3.95;;;8.20;99.90;;;;;;5014976;28;20033;-75
2022/01/03 03:54:48;;;;;;;26.52;3.78;;;8.20;99.90;;;;;;5014364;28;20083;-74
2022/01/03 03:57:13;;;;;;;27.27;3.67;;;8.20;99.90;;;;;;5016552;28;20053;-75
2022/01/03 03:59:39;;;;;;;28.45;3.78;;;8.20;99.90;;;;;;5058320;28;20056;-74
2022/01/03 04:02:06;;;;;;;26.25;3.55;;;8.20;99.90;;;;;;5017898;28;20049;-75
2022/01/03 04:04:32;;;;;;;27.27;3.63;;;8.20;99.90;;;;;;5054433;28;20045;-75
2022/01/03 04:06:57;;;;;;;29.70;3.88;;;8.20;99.90;;;;;;5023173;28;20492;-75
2022/01/03 04:09:23;;;;;;;32.13;4.18;;;8.20;99.90;;;;;;5017380;28;20029;-75
2022/01/03 04:11:49;;;;;;;28.67;4.05;;;8.10;99.90;;;;;;5008458;28;20096;-76
2022/01/03 04:14:15;;;;;;;33.08;4.70;;;8.20;99.90;;;;;;5014338;28;20426;-75
2022/01/03 04:16:41;;;;;;;26.35;4.35;;;8.20;99.90;;;;;;5011150;28;20077;-75
2022/01/03 04:19:07;;;;;;;34.28;4.95;;;8.20;99.90;;;;;;5021320;28;20079;-75
2022/01/03 04:21:33;;;;;;;26.10;4.20;;;8.20;99.90;;;;;;5020311;28;20550;-74
2022/01/03 04:23:58;;;;;;;29.60;4.18;;;8.30;99.90;;;;;;5024968;28;20049;-74
2022/01/03 04:26:24;;;;;;;30.10;3.95;;;8.20;99.90;;;;;;5014808;28;20049;-78
2022/01/03 04:28:50;;;;;;;29.42;4.50;;;8.20;99.90;;;;;;5010489;28;20045;-78
2022/01/03 04:31:16;;;;;;;33.88;3.83;;;8.30;99.90;;;;;;5018508;28;20087;-77
2022/01/03 04:33:42;;;;;;;38.22;4.53;;;8.20;99.90;;;;;;5015983;28;20057;-77
2022/01/03 04:36:09;;;;;;;32.22;4.38;;;8.20;99.90;;;;;;5006480;28;20045;-77
2022/01/03 04:38:36;;;;;;;31.70;4.93;;;8.20;99.90;;;;;;4998500;28;20052;-75
2022/01/03 04:41:02;;;;;;;31.73;3.80;;;8.20;99.90;;;;;;5013242;28;20042;-74
2022/01/03 04:43:28;;;;;;;25.13;3.55;;;8.20;99.90;;;;;;4996031;28;20092;-74
2022/01/03 04:45:57;;;;;;;33.90;4.68;;;8.20;99.90;;;;;;4996934;28;20140;-74
2022/01/03 04:48:24;;;;;;;30.77;3.97;;;8.20;99.90;;;;;;5015157;28;20099;-75
2022/01/03 04:50:50;;;;;;;35.28;4.22;;;8.20;99.90;;;;;;5008330;28;20086;-74
2022/01/03 04:53:16;;;;;;;41.05;5.18;;;8.20;99.90;;;;;;5013733;28;20435;-75
2022/01/03 04:55:42;;;;;;;32.70;4.55;;;8.20;99.90;;;;;;5011399;28;20050;-74
2022/01/03 04:58:10;;;;;;;35.58;4.30;;;8.20;99.90;;;;;;5024784;28;20438;-74
2022/01/03 05:00:37;;;;;;;35.25;4.97;;;8.20;99.90;;;;;;5016411;28;20051;-72
2022/01/03 05:03:02;;;;;;;37.10;5.25;;;8.20;99.90;;;;;;5026503;28;20471;-74
2022/01/03 05:05:28;;;;;;;37.90;5.07;;;8.20;99.90;;;;;;5014157;28;20103;-74
2022/01/03 05:07:54;;;;;;;31.02;5.13;;;8.20;99.90;;;;;;5020686;28;20142;-74
2022/01/03 05:10:20;;;;;;;31.23;4.28;;;8.20;99.90;;;;;;5025037;28;20179;-74
2022/01/03 05:12:45;;;;;;;30.75;4.20;;;8.20;99.90;;;;;;5011722;28;20537;-75
2022/01/03 05:15:11;;;;;;;37.05;4.43;;;8.20;99.90;;;;;;5024173;28;20053;-74
2022/01/03 05:17:37;;;;;;;34.17;4.45;;;8.20;99.90;;;;;;5004112;28;20225;-74
2022/01/03 05:20:03;;;;;;;33.35;4.78;;;8.20;99.90;;;;;;5003084;28;20068;-74
2022/01/03 05:22:29;;;;;;;31.85;5.13;;;8.20;99.90;;;;;;5024429;28;20037;-74
2022/01/03 05:24:55;;;;;;;31.88;4.35;;;8.20;99.90;;;;;;5014970;28;20068;-74
2022/01/03 05:27:21;;;;;;;31.83;4.78;;;8.20;99.90;;;;;;5025938;28;20519;-74
2022/01/03 05:29:46;;;;;;;37.22;4.53;;;8.20;99.90;;;;;;5025756;28;20037;-74
2022/01/03 05:32:12;;;;;;;44.72;4.78;;;8.20;99.90;;;;;;5028198;28;20103;-75
2022/01/03 05:34:38;;;;;;;31.63;4.57;;;8.20;99.90;;;;;;5021842;28;20565;-76
2022/01/03 05:37:04;;;;;;;39.88;5.05;;;8.20;99.90;;;;;;5044513;28;20418;-76
2022/01/03 05:39:29;;;;;;;30.67;5.40;;;8.20;99.90;;;;;;5024101;28;20099;-73
2022/01/03 05:41:55;;;;;;;29.23;4.63;;;8.20;99.90;;;;;;5003016;28;20088;-73
2022/01/03 05:44:21;;;;;;;26.60;4.47;;;8.20;99.90;;;;;;5023316;28;20064;-73
2022/01/03 05:46:46;;;;;;;25.73;4.15;;;8.20;99.90;;;;;;5003437;28;20045;-73
2022/01/03 05:49:12;;;;;;;31.55;4.35;;;8.20;99.90;;;;;;5018121;28;20049;-73
2022/01/03 05:51:38;;;;;;;43.08;5.10;;;8.20;99.90;;;;;;5025687;28;20529;-74
2022/01/03 05:54:05;;;;;;;31.50;5.07;;;8.20;99.90;;;;;;5012003;28;20092;-74
2022/01/03 05:56:31;;;;;;;28.27;3.88;;;8.30;99.90;;;;;;5004323;28;20145;-74
2022/01/03 05:58:57;;;;;;;35.30;4.50;;;8.30;99.90;;;;;;5031298;28;20052;-74
2022/01/03 06:01:24;;;;;;;48.08;4.68;;;8.30;99.90;;;;;;5022382;28;20037;-74
2022/01/03 06:03:58;;;;;;;32.03;4.72;;;8.30;99.90;;;;;;5005742;28;20054;-74
2022/01/03 06:09:11;;;;;;;32.90;4.63;;;8.20;99.90;;;;;;5017552;28;20037;-74
2022/01/03 06:11:37;;;;;;;41.40;5.07;;;8.20;99.90;;;;;;5011277;28;20335;-74
2022/01/03 06:14:02;;;;;;;36.90;5.25;;;8.20;99.90;;;;;;5015767;28;20080;-73
2022/01/03 06:16:28;;;;;;;32.63;4.25;;;8.20;99.90;;;;;;5015266;28;20113;-73
2022/01/03 06:18:54;;;;;;;32.97;4.45;;;8.10;99.90;;;;;;5011735;28;20053;-73
2022/01/03 06:21:20;;;;;;;36.00;5.13;;;8.20;99.90;;;;;;5017989;28;20045;-73
2022/01/03 06:23:46;;;;;;;42.83;4.88;;;8.20;99.90;;;;;;5020169;28;20130;-73
2022/01/03 06:26:12;;;;;;;40.22;6.35;;;8.20;99.90;;;;;;5018490;28;20041;-74
2022/01/03 06:28:38;;;;;;;33.53;4.30;;;8.20;99.90;;;;;;5000868;28;20040;-76
2022/01/03 06:31:03;;;;;;;36.80;5.38;;;8.20;99.90;;;;;;5012887;28;20152;-76
2022/01/03 06:33:29;;;;;;;33.58;4.85;;;8.20;99.90;;;;;;5017284;28;20049;-75
2022/01/03 06:35:55;;;;;;;29.83;5.00;;;8.20;99.90;;;;;;5037125;28;20402;-73
2022/01/03 06:38:20;;;;;;;37.42;4.60;;;8.20;99.90;;;;;;5003143;28;20048;-74
2022/01/03 06:40:46;;;;;;;47.03;5.95;;;8.20;99.90;;;;;;5006615;28;20456;-73
2022/01/03 06:43:12;;;;;;;33.42;4.20;;;8.20;99.90;;;;;;5008799;28;20509;-74
2022/01/03 06:45:37;;;;;;;39.33;4.90;;;8.20;99.90;;;;;;5008097;28;20048;-76
2022/01/03 06:48:03;;;;;;;51.92;5.95;;;8.20;99.90;;;;;;5007832;28;20053;-76
2022/01/03 06:50:30;;;;;;;37.78;4.60;;;8.20;99.90;;;;;;5016078;28;20082;-75
2022/01/03 06:52:57;;;;;;;37.30;5.40;;;8.40;99.90;;;;;;5016113;28;20103;-75
2022/01/03 06:55:23;;;;;;;32.20;4.70;;;8.20;99.90;;;;;;5021344;28;20041;-76
2022/01/03 06:57:49;;;;;;;36.28;5.00;;;8.20;99.90;;;;;;5017648;28;20154;-75
2022/01/03 07:00:15;;;;;;;41.08;5.53;;;8.20;99.90;;;;;;4996090;28;20425;-75
2022/01/03 07:02:42;;;;;;;34.70;4.05;;;8.10;99.90;;;;;;5035589;28;20034;-75
2022/01/03 07:05:12;;;;;;;32.97;5.28;;;8.20;99.90;;;;;;5016199;28;20065;-76
2022/01/03 07:07:38;;;;;;;40.75;5.05;;;8.10;99.90;;;;;;5018541;28;20045;-75
2022/01/03 07:10:05;;;;;;;36.35;4.70;;;8.10;99.90;;;;;;5003340;28;20041;-75
2022/01/03 07:12:31;;;;;;;32.17;4.78;;;8.10;99.90;;;;;;5016444;28;20037;-75
2022/01/03 07:20:09;;;;;;;34.92;4.97;;;8.10;99.90;;;;;;5023951;28;20572;-76
2022/01/03 07:22:39;;;;;;;36.60;5.82;;;8.10;99.90;;;;;;5009468;28;20037;-75
2022/01/03 07:25:07;;;;;;;33.42;4.40;;;8.00;99.90;;;;;;5008590;28;20045;-75
2022/01/03 07:27:32;;;;;;;40.35;4.53;;;8.00;99.90;;;;;;5024364;28;20563;-75
2022/01/03 07:29:58;;;;;;;35.60;4.80;;;8.00;99.90;;;;;;5016141;28;20053;-75
2022/01/03 07:32:24;;;;;;;37.67;5.15;;;8.10;99.90;;;;;;5018873;28;20049;-75
2022/01/03 07:34:49;;;;;;;38.22;4.85;;;8.00;99.90;;;;;;5020877;28;20448;-75
2022/01/03 07:37:15;;;;;;;35.80;4.53;;;8.00;99.90;;;;;;5004788;28;20061;-75
2022/01/03 07:39:41;;;;;;;44.08;6.13;;;8.00;99.90;;;;;;5017284;28;20049;-75
2022/01/03 07:42:07;;;;;;;39.20;4.30;;;8.00;99.90;;;;;;5014667;28;20191;-74
2022/01/03 07:44:32;;;;;;;35.38;5.03;;;8.00;99.90;;;;;;5019351;28;20088;-76
2022/01/03 07:46:58;;;;;;;37.80;4.78;;;8.00;99.90;;;;;;4997810;28;20045;-75
2022/01/03 07:49:24;;;;;;;42.17;5.85;;;8.00;99.90;;;;;;5011490;28;20155;-74
2022/01/03 07:51:49;;;;;;;34.15;4.63;;;8.00;99.90;;;;;;4998594;28;20059;-75
2022/01/03 07:54:15;;;;;;;33.35;4.07;;;8.00;99.90;;;;;;5013782;28;20045;-75
2022/01/03 07:56:41;;;;;;;38.30;5.75;;;8.10;99.90;;;;;;5017457;28;20124;-76
2022/01/03 07:59:06;;;;;;;38.53;5.80;;;8.10;99.90;;;;;;4998044;28;20091;-75
2022/01/03 08:01:33;;;;;;;34.28;4.55;;;8.20;99.90;;;;;;5017545;28;20510;-75
2022/01/03 08:03:58;;;;;;;51.65;6.72;;;8.20;99.90;;;;;;5018992;28;20128;-75
2022/01/03 08:06:24;;;;;;;39.35;6.05;;;8.20;99.90;;;;;;5018617;28;20140;-76
2022/01/03 08:08:50;;;;;;;39.58;4.72;;;8.30;99.90;;;;;;5015384;28;20041;-75
2022/01/03 08:11:16;;;;;;;35.58;5.03;;;8.30;99.90;;;;;;5017657;28;20068;-75
2022/01/03 08:13:42;;;;;;;38.17;4.85;;;8.30;99.90;;;;;;5014032;28;20045;-75
2022/01/03 08:16:08;;;;;;;32.25;4.72;;;8.30;99.90;;;;;;5018773;28;20046;-75
2022/01/03 08:18:34;;;;;;;33.85;4.45;;;8.40;99.90;;;;;;5019200;28;20086;-75
2022/01/03 08:21:00;;;;;;;41.55;4.50;;;8.40;99.90;;;;;;5015181;28;20690;-75
2022/01/03 08:23:25;;;;;;;32.80;4.10;;;8.40;99.90;;;;;;5014441;28;20490;-75
2022/01/03 08:25:52;;;;;;;35.28;4.63;;;8.50;99.90;;;;;;5033931;28;20059;-75
2022/01/03 08:28:18;;;;;;;33.40;4.80;;;8.50;99.90;;;;;;4988599;28;20045;-74
2022/01/03 08:30:44;;;;;;;40.50;4.68;;;8.50;99.90;;;;;;5000086;28;20425;-74
2022/01/03 08:33:09;;;;;;;29.02;3.88;;;8.60;99.90;;;;;;5029852;28;20124;-74
2022/01/03 08:35:35;;;;;;;34.65;5.20;;;8.50;99.90;;;;;;5000611;28;20030;-73
2022/01/03 08:38:04;;;;;;;40.10;4.80;;;8.60;99.90;;;;;;5011831;28;20107;-74
2022/01/03 08:40:31;;;;;;;38.20;5.20;;;8.60;99.90;;;;;;4998806;28;20069;-74
2022/01/03 08:42:58;;;;;;;33.95;4.57;;;8.60;99.90;;;;;;4994315;28;20056;-72
2022/01/03 08:45:23;;;;;;;27.02;3.88;;;8.40;99.90;;;;;;5007571;28;20256;-73
2022/01/03 08:47:49;;;;;;;37.50;5.80;;;8.70;99.90;;;;;;5012215;28;20045;-73
2022/01/03 08:50:17;;;;;;;28.92;4.40;;;8.60;99.90;;;;;;5006338;28;20055;-75
2022/01/03 08:52:44;;;;;;;38.47;4.60;;;8.70;99.90;;;;;;5022542;28;20124;-76
2022/01/03 08:55:10;;;;;;;30.48;4.55;;;8.70;99.90;;;;;;5013930;28;20081;-75
2022/01/03 08:57:35;;;;;;;33.58;4.88;;;8.70;99.90;;;;;;5019398;28;20080;-74
2022/01/03 09:00:01;;;;;;;31.35;4.15;;;8.80;99.90;;;;;;5017191;28;20510;-74
2022/01/03 09:02:27;;;;;;;29.15;4.35;;;8.80;99.90;;;;;;5013243;28;20413;-73
2022/01/03 09:04:53;;;;;;;32.13;5.50;;;8.80;99.90;;;;;;4995031;28;20570;-73
2022/01/03 09:07:18;;;;;;;36.78;4.88;;;8.90;99.90;;;;;;5012164;28;20720;-73
2022/01/03 09:09:44;;;;;;;29.33;4.32;;;8.90;99.90;;;;;;4996284;28;20511;-73
2022/01/03 09:12:10;;;;;;;36.78;5.45;;;8.90;99.90;;;;;;5008696;28;20057;-73
2022/01/03 09:14:36;;;;;;;29.25;4.47;;;8.90;99.90;;;;;;4996807;28;21529;-72
2022/01/03 09:17:03;;;;;;;38.03;5.43;;;9.00;99.90;;;;;;4995861;28;20383;-74
2022/01/03 09:19:29;;;;;;;34.17;5.07;;;9.00;99.90;;;;;;5010594;28;20647;-74
2022/01/03 09:22:24;;;;;;;34.22;4.95;;;9.00;99.90;;;;;;5009116;28;20191;-74
2022/01/03 09:24:48;;;;;;;30.60;4.60;;;9.00;99.90;;;;;;5008498;28;20056;-74
2022/01/03 09:30:02;;;;;;;37.55;5.93;;;9.00;99.90;;;;;;5017718;28;20084;-74
2022/01/03 09:32:28;;;;;;;33.45;5.07;;;9.10;99.90;;;;;;5001879;28;20433;-75
2022/01/03 09:34:54;;;;;;;38.58;5.20;;;9.10;99.90;;;;;;5039047;28;20054;-74
2022/01/03 09:37:20;;;;;;;32.72;4.18;;;9.10;99.90;;;;;;5024818;28;20048;-70
2022/01/03 09:39:50;;;;;;;43.95;6.20;;;9.10;99.90;;;;;;5013209;28;20641;-70
2022/01/03 09:42:23;;;;;;;30.65;4.18;;;9.10;99.90;;;;;;5008628;28;20041;-69
2022/01/03 09:44:53;;;;;;;31.13;4.43;;;9.10;99.90;;;;;;5007850;28;21188;-70
2022/01/03 09:47:20;;;;;;;36.25;5.05;;;9.20;99.90;;;;;;5034105;28;20095;-70
2022/01/03 09:49:47;;;;;;;25.67;4.78;;;9.10;99.90;;;;;;5004518;28;20454;-70
2022/01/03 09:52:19;;;;;;;23.33;4.18;;;9.20;99.90;;;;;;5006800;28;20041;-70
2022/01/03 09:54:46;;;;;;;34.70;4.80;;;9.20;99.90;;;;;;5001786;28;20164;-70
2022/01/03 09:57:14;;;;;;;26.30;4.30;;;9.20;99.90;;;;;;5040102;28;20064;-70
2022/01/03 09:59:39;;;;;;;36.92;6.10;;;9.20;99.90;;;;;;5013605;28;20066;-69
2022/01/03 10:02:06;;;;;;;40.80;5.20;;;9.20;99.90;;;;;;5012544;28;20800;-70
2022/01/03 10:04:33;;;;;;;34.30;4.60;;;9.30;99.90;;;;;;5012934;28;20068;-70
2022/01/03 10:06:59;;;;;;;25.40;4.05;;;9.30;99.90;;;;;;5013425;28;20060;-70
2022/01/03 10:09:25;;;;;;;32.88;4.93;;;9.30;99.90;;;;;;5011891;28;20041;-70
2022/01/03 10:11:51;;;;;;;33.97;4.90;;;9.30;99.90;;;;;;5031792;28;20778;-70
2022/01/03 10:14:17;;;;;;;23.80;4.50;;;9.30;99.90;;;;;;5034053;28;20053;-70
2022/01/03 10:16:45;;;;;;;38.90;5.07;;;9.30;99.90;;;;;;5018048;28;20128;-71
2022/01/03 10:19:10;;;;;;;29.75;4.40;;;9.30;99.90;;;;;;5015793;28;20083;-70
2022/01/03 10:21:43;;;;;;;25.65;4.40;;;9.40;99.90;;;;;;5020085;28;20045;-71
2022/01/03 10:24:10;;;;;;;31.20;4.30;;;9.40;99.90;;;;;;5017715;28;20052;-69
2022/01/03 10:26:38;;;;;;;38.72;4.47;;;9.50;99.90;;;;;;5008241;28;20049;-69
2022/01/03 10:29:24;;;;;;;30.58;4.28;;;9.50;99.90;;;;;;5012040;28;20046;-69
2022/01/03 10:31:55;;;;;;;37.33;6.72;;;9.60;99.90;;;;;;5031111;28;20049;-71
2022/01/03 10:34:25;;;;;;;26.85;4.00;;;9.60;99.90;;;;;;5013596;28;20444;-70
2022/01/03 10:36:53;;;;;;;29.45;4.60;;;9.60;99.90;;;;;;5012527;28;20405;-70
2022/01/03 10:39:23;;;;;;;35.80;4.13;;;9.70;99.90;;;;;;5015537;28;20132;-70
2022/01/03 10:41:51;;;;;;;27.67;3.65;;;9.70;99.90;;;;;;5004930;28;20085;-71
2022/01/03 10:44:31;;;;;;;33.00;4.22;;;9.70;99.90;;;;;;5028011;28;20084;-71
2022/01/03 10:46:57;;;;;;;23.00;3.60;;;9.70;99.90;;;;;;4999541;28;20053;-71
2022/01/03 10:49:25;;;;;;;39.42;4.50;;;9.70;99.90;;;;;;5018878;28;20056;-68
2022/01/03 10:51:51;;;;;;;26.48;4.63;;;9.70;99.90;;;;;;5018337;28;20528;-69
2022/01/03 10:54:18;;;;;;;29.90;4.60;;;9.70;99.90;;;;;;5017342;28;20056;-69
2022/01/03 10:56:48;;;;;;;26.70;4.50;;;9.60;99.90;;;;;;5016544;28;20048;-71
2022/01/03 10:59:22;;;;;;;33.75;5.20;;;9.60;99.90;;;;;;5014486;28;20053;-71
2022/01/03 11:02:03;;;;;;;32.53;4.25;;;9.60;99.90;;;;;;5017848;28;20395;-71
2022/01/03 11:04:35;;;;;;;34.42;5.03;;;9.60;99.90;;;;;;5014585;28;20688;-71
2022/01/03 11:10:43;;;;;;;;;;;9.60;99.90;;;;;;5014317;28;20377;-71
2022/01/03 11:13:09;;;;;;;32.50;4.00;;;9.70;99.90;;;;;;5019487;28;20079;-71
2022/01/03 11:15:37;;;;;;;28.70;3.80;;;9.70;99.90;;;;;;5014350;28;20038;-71
2022/01/03 11:18:13;;;;;;;25.80;4.00;;;9.70;99.90;;;;;;5018968;28;20064;-71
2022/01/03 11:20:40;;;;;;;33.92;4.80;;;9.70;99.90;;;;;;5018186;28;20127;-72
2022/01/03 11:23:06;;;;;;;24.98;4.32;;;9.70;99.90;;;;;;5018396;28;20042;-71
2022/01/03 11:25:34;;;;;;;29.00;4.07;;;9.70;99.90;;;;;;5019886;28;20048;-70
2022/01/03 11:28:01;;;;;;;33.40;5.20;;;9.70;99.90;;;;;;5015313;28;20045;-71
2022/01/03 11:30:27;;;;;;;30.50;4.25;;;9.70;99.90;;;;;;5013595;28;20092;-70
2022/01/03 11:32:53;;;;;;;28.45;3.90;;;9.70;99.90;;;;;;5035288;28;20152;-70
2022/01/03 11:35:19;;;;;;;24.40;3.75;;;9.70;99.90;;;;;;5019018;28;20096;-71
2022/01/03 11:37:47;;;;;;;33.00;5.57;;;9.70;99.90;;;;;;5015866;28;20053;-70
2022/01/03 11:40:15;;;;;;;35.88;4.30;;;9.80;99.90;;;;;;4998104;28;20053;-72
2022/01/03 11:42:42;;;;;;;34.42;4.35;;;9.80;99.90;;;;;;5019641;28;20037;-71
2022/01/03 11:45:08;;;;;;;30.50;4.45;;;9.80;99.90;;;;;;5033981;28;20045;-70
2022/01/03 11:47:36;;;;;;;32.58;4.15;;;9.80;99.90;;;;;;5015865;28;20462;-71
2022/01/03 11:50:02;;;;;;;28.02;4.22;;;9.80;99.90;;;;;;5005790;28;20426;-71
2022/01/03 11:52:29;;;;;;;23.48;3.70;;;9.90;99.90;;;;;;5013772;28;20053;-70
2022/01/03 11:54:56;;;;;;;27.30;4.28;;;9.90;99.90;;;;;;4994872;28;20049;-70
2022/01/03 12:05:45;;;;;;;27.73;4.45;;;10.00;99.90;;;;;;5048743;28;20180;-71
2022/01/03 12:08:24;;;;;;;31.30;3.88;;;10.00;99.90;;;;;;4998684;28;20092;-70
2022/01/03 12:10:50;;;;;;;34.90;4.90;;;9.90;99.90;;;;;;5016448;28;20057;-70
2022/01/03 12:13:16;;;;;;;27.25;3.90;;;9.90;99.90;;;;;;4993963;28;20064;-69
2022/01/03 12:15:42;;;;;;;30.05;3.63;;;9.90;99.90;;;;;;5032478;28;20045;-69
2022/01/03 12:18:31;;;;;;;30.13;5.32;;;9.90;99.90;;;;;;5017176;28;20049;-70
2022/01/03 12:20:57;;;;;;;29.98;4.00;;;9.90;99.90;;;;;;4999763;28;20315;-69
2022/01/03 12:23:43;;;;;;;27.95;3.25;;;10.00;99.90;;;;;;4999578;28;20183;-69
2022/01/03 12:26:23;;;;;;;33.95;4.07;;;10.00;99.90;;;;;;5017489;28;20681;-70
2022/01/03 12:29:09;;;;;;;26.23;4.35;;;10.00;99.90;;;;;;5050850;28;20465;-71
2022/01/03 12:32:06;;;;;;;27.55;4.15;;;10.00;99.90;;;;;;5008702;28;20053;-71
2022/01/03 12:34:32;;;;;;;22.20;3.75;;;10.00;99.90;;;;;;5016214;28;20095;-71
2022/01/03 12:37:16;;;;;;;36.05;4.57;;;10.10;99.90;;;;;;5048792;28;20044;-70
2022/01/03 12:40:03;;;;;;;26.13;3.92;;;10.20;99.90;;;;;;5013407;28;20538;-70
2022/01/03 12:42:56;;;;;;;30.30;4.05;;;10.20;99.90;;;;;;5008960;28;20053;-70
2022/01/03 12:45:34;;;;;;;27.58;4.22;;;10.30;99.90;;;;;;5010924;28;20057;-71
2022/01/03 12:50:36;;;;;;;32.47;4.55;;;10.40;99.90;;;;;;5044884;28;20061;-71
2022/01/03 12:53:03;;;;;;;38.05;5.63;;;10.40;99.90;;;;;;5011502;28;20042;-70
2022/01/03 12:55:38;;;;;;;28.98;4.57;;;10.40;99.90;;;;;;5005362;28;20049;-70
2022/01/03 12:58:16;;;;;;;28.85;4.40;;;10.40;99.90;;;;;;5001381;28;20177;-71
2022/01/03 13:00:45;;;;;;;28.05;4.18;;;10.40;99.90;;;;;;4982970;28;20148;-72
2022/01/03 13:03:21;;;;;;;37.08;5.53;;;10.30;99.90;;;;;;5003045;28;20057;-71
2022/01/03 13:06:24;;;;;;;31.15;4.07;;;10.20;99.90;;;;;;5007086;28;20115;-70
2022/01/03 13:08:56;;;;;;;25.55;4.15;;;10.20;99.90;;;;;;5041300;28;20490;-70
2022/01/03 13:11:25;;;;;;;30.77;4.47;;;10.20;99.90;;;;;;4998141;28;20132;-70
2022/01/03 13:13:52;;;;;;;26.48;4.20;;;10.20;99.90;;;;;;5014145;28;20072;-70
2022/01/03 13:16:21;;;;;;;31.27;4.78;;;10.10;99.90;;;;;;4989578;28;20053;-71